createdAt,value
2018-07-28T00:02:06.179Z,3.87
2018-07-28T00:04:34.925Z,4.03
2018-07-28T00:07:03.294Z,3.80
2018-07-28T00:09:31.919Z,4.50
2018-07-28T00:12:00.317Z,3.77
2018-07-28T00:14:28.751Z,3.30
2018-07-28T00:19:35.993Z,3.57
2018-07-28T00:22:04.963Z,3.97
2018-07-28T00:24:33.371Z,3.47
2018-07-28T00:27:01.724Z,3.77
2018-07-28T00:29:30.366Z,4.63
2018-07-28T00:31:59.151Z,3.73
2018-07-28T00:34:27.799Z,4.30
2018-07-28T00:36:56.195Z,3.93
2018-07-28T00:39:24.941Z,4.20
2018-07-28T00:41:53.594Z,4.50
2018-07-28T00:44:21.950Z,3.83
2018-07-28T00:46:50.599Z,4.13
2018-07-28T00:49:18.980Z,4.43
2018-07-28T00:51:47.619Z,3.70
2018-07-28T00:54:16.524Z,4.10
2018-07-28T00:56:44.935Z,3.80
2018-07-28T00:59:13.298Z,3.83
2018-07-28T01:01:41.943Z,4.43
2018-07-28T01:04:10.883Z,4.87
2018-07-28T01:06:39.268Z,4.17
2018-07-28T01:09:08.962Z,3.20
2018-07-28T01:11:38.015Z,4.27
2018-07-28T01:14:06.747Z,4.87
2018-07-28T01:16:35.506Z,4.50
2018-07-28T01:19:04.159Z,4.07
2018-07-28T01:21:32.964Z,4.40
2018-07-28T01:24:01.867Z,4.00
2018-07-28T01:26:30.355Z,4.53
2018-07-28T01:29:04.195Z,4.67
2018-07-28T01:31:32.599Z,3.60
2018-07-28T01:34:01.120Z,4.27
2018-07-28T01:36:29.811Z,4.27
2018-07-28T01:38:58.215Z,3.53
2018-07-28T01:41:27.258Z,3.20
2018-07-28T01:43:55.662Z,4.17
2018-07-28T01:46:24.538Z,3.63
2018-07-28T01:48:52.911Z,4.60
2018-07-28T01:51:21.267Z,3.70
2018-07-28T01:53:49.651Z,4.23
2018-07-28T01:56:18.487Z,4.50
2018-07-28T01:58:46.863Z,3.90
2018-07-28T02:01:15.251Z,4.37
2018-07-28T02:03:43.635Z,4.57
2018-07-28T02:06:12.492Z,4.33
2018-07-28T02:08:41.036Z,4.50
2018-07-28T02:11:09.720Z,4.40
2018-07-28T02:13:38.352Z,3.97
2018-07-28T02:16:06.874Z,3.80
2018-07-28T02:18:35.306Z,3.80
2018-07-28T02:21:04.031Z,4.50
2018-07-28T02:23:32.443Z,3.60
2018-07-28T02:26:00.838Z,5.10
2018-07-28T02:28:29.813Z,4.20
2018-07-28T02:30:58.894Z,4.80
2018-07-28T02:33:27.811Z,4.60
2018-07-28T02:35:56.219Z,4.83
2018-07-28T02:38:24.595Z,3.80
2018-07-28T02:40:52.943Z,4.50
2018-07-28T02:43:21.323Z,3.90
2018-07-28T02:45:49.799Z,4.40
2018-07-28T02:48:18.495Z,4.20
2018-07-28T02:50:46.870Z,3.97
2018-07-28T02:53:15.554Z,4.00
2018-07-28T02:55:44.015Z,3.80
2018-07-28T02:58:12.403Z,3.63
2018-07-28T03:00:40.875Z,4.73
2018-07-28T03:03:09.348Z,4.30
2018-07-28T03:05:38.059Z,3.97
2018-07-28T03:08:07.303Z,3.80
2018-07-28T03:10:35.691Z,3.77
2018-07-28T03:13:04.141Z,3.87
2018-07-28T03:15:33.768Z,4.63
2018-07-28T03:18:06.368Z,4.77
2018-07-28T03:20:35.403Z,3.93
2018-07-28T03:23:04.999Z,3.90
2018-07-28T03:25:33.619Z,4.57
2018-07-28T03:28:02.040Z,5.23
2018-07-28T03:30:30.682Z,3.10
2018-07-28T03:32:59.302Z,3.73
2018-07-28T03:35:28.032Z,4.13
2018-07-28T03:37:56.434Z,4.20
2018-07-28T03:40:24.826Z,3.73
2018-07-28T03:42:53.487Z,5.00
2018-07-28T03:45:22.167Z,4.37
2018-07-28T03:47:50.527Z,4.70
2018-07-28T03:50:18.887Z,4.80
2018-07-28T03:52:49.649Z,5.17
2018-07-28T03:55:20.044Z,5.33
2018-07-28T03:57:48.427Z,3.80
2018-07-28T04:00:18.619Z,4.20
2018-07-28T04:02:49.094Z,3.80
2018-07-28T04:05:19.740Z,4.30
2018-07-28T04:07:48.407Z,3.20
2018-07-28T04:10:16.834Z,4.07
2018-07-28T04:12:45.506Z,4.50
2018-07-28T04:15:14.079Z,3.80
2018-07-28T04:17:53.228Z,4.33
2018-07-28T04:20:22.683Z,4.20
2018-07-28T04:22:51.807Z,4.60
2018-07-28T04:25:20.542Z,3.90
2018-07-28T04:27:49.380Z,4.00
2018-07-28T04:30:18.116Z,3.93
2018-07-28T04:32:46.751Z,4.33
2018-07-28T04:35:15.411Z,5.40
2018-07-28T04:37:43.817Z,4.90
2018-07-28T04:40:12.807Z,4.40
2018-07-28T04:42:42.316Z,4.20
2018-07-28T04:45:10.879Z,4.50
2018-07-28T04:47:39.802Z,4.60
2018-07-28T04:50:08.171Z,3.87
2018-07-28T04:52:37.260Z,4.07
2018-07-28T04:55:06.119Z,4.60
2018-07-28T04:57:35.043Z,3.93
2018-07-28T05:00:03.498Z,4.67
2018-07-28T05:02:32.079Z,5.10
2018-07-28T05:05:00.963Z,5.07
2018-07-28T05:07:29.623Z,4.90
2018-07-28T05:09:57.980Z,4.33
2018-07-28T05:12:26.678Z,4.53
2018-07-28T05:14:55.787Z,4.30
2018-07-28T05:17:24.770Z,5.20
2018-07-28T05:19:53.131Z,4.53
2018-07-28T05:22:21.967Z,4.20
2018-07-28T05:24:50.330Z,5.20
2018-07-28T05:27:18.981Z,4.30
2018-07-28T05:29:47.687Z,4.50
2018-07-28T05:32:16.714Z,3.90
2018-07-28T05:34:45.416Z,3.53
2018-07-28T05:37:14.078Z,4.97
2018-07-28T05:39:42.415Z,3.77
2018-07-28T05:42:11.071Z,4.17
2018-07-28T05:44:39.737Z,3.50
2018-07-28T05:47:08.201Z,4.23
2018-07-28T05:49:37.139Z,4.60
2018-07-28T05:52:06.035Z,4.23
2018-07-28T05:54:34.466Z,3.90
2018-07-28T05:57:03.299Z,3.47
2018-07-28T05:59:31.989Z,3.40
2018-07-28T06:02:00.270Z,3.43
2018-07-28T06:04:28.827Z,3.17
2018-07-28T06:06:57.824Z,2.97
2018-07-28T06:09:26.227Z,4.13
2018-07-28T06:11:54.615Z,3.50
2018-07-28T06:14:23.355Z,3.33
2018-07-28T06:16:51.726Z,3.30
2018-07-28T06:19:20.080Z,3.27
2018-07-28T06:21:48.491Z,2.93
2018-07-28T06:24:16.857Z,3.17
2018-07-28T06:26:45.203Z,3.27
2018-07-28T06:29:14.250Z,3.80
2018-07-28T06:31:43.367Z,3.90
2018-07-28T06:34:11.667Z,3.33
2018-07-28T06:36:40.212Z,3.63
2018-07-28T06:39:12.746Z,3.60
2018-07-28T06:41:41.261Z,2.80
2018-07-28T06:44:10.146Z,3.63
2018-07-28T06:46:39.222Z,3.17
2018-07-28T06:49:08.363Z,3.30
2018-07-28T06:51:36.746Z,3.30
2018-07-28T06:54:05.687Z,2.93
2018-07-28T06:56:34.179Z,2.97
2018-07-28T06:59:04.418Z,2.33
2018-07-28T07:01:33.786Z,2.17
2018-07-28T07:04:02.491Z,3.47
2018-07-28T07:06:30.898Z,2.80
2018-07-28T07:08:59.602Z,3.07
2018-07-28T07:11:28.547Z,3.70
2018-07-28T07:13:57.290Z,3.40
2018-07-28T07:16:25.698Z,3.37
2018-07-28T07:18:54.727Z,3.13
2018-07-28T07:21:23.378Z,3.07
2018-07-28T07:23:52.062Z,3.47
2018-07-28T07:26:20.743Z,3.07
2018-07-28T07:28:49.455Z,3.30
2018-07-28T07:31:18.187Z,4.10
2018-07-28T07:33:46.560Z,3.47
2018-07-28T07:36:15.167Z,4.00
2018-07-28T07:38:43.836Z,3.40
2018-07-28T07:41:11.897Z,2.90
2018-07-28T07:43:40.312Z,3.20
2018-07-28T07:46:08.789Z,3.57
2018-07-28T07:48:37.594Z,3.00
2018-07-28T07:51:06.243Z,3.90
2018-07-28T07:53:34.960Z,3.20
2018-07-28T07:56:03.452Z,3.50
2018-07-28T07:58:32.527Z,3.07
2018-07-28T08:01:01.219Z,3.30
2018-07-28T08:03:29.902Z,3.43
2018-07-28T08:05:59.094Z,3.43
2018-07-28T08:08:27.490Z,3.73
2018-07-28T08:10:56.091Z,3.57
2018-07-28T08:13:24.747Z,3.30
2018-07-28T08:15:53.778Z,3.00
2018-07-28T08:18:22.166Z,3.47
2018-07-28T08:20:50.873Z,4.03
2018-07-28T08:23:19.239Z,3.23
2018-07-28T08:25:47.876Z,2.90
2018-07-28T08:28:16.547Z,2.90
2018-07-28T08:30:45.551Z,3.40
2018-07-28T08:33:14.539Z,2.83
2018-07-28T08:35:43.198Z,3.10
2018-07-28T08:38:12.107Z,3.23
2018-07-28T08:40:41.186Z,3.50
2018-07-28T08:43:10.090Z,3.77
2018-07-28T08:45:38.878Z,3.10
2018-07-28T08:48:08.147Z,3.40
2018-07-28T08:50:36.211Z,3.40
2018-07-28T08:53:04.770Z,3.33
2018-07-28T08:55:33.452Z,3.50
2018-07-28T08:58:02.510Z,3.97
2018-07-28T09:00:31.115Z,3.20
2018-07-28T09:02:59.210Z,4.10
2018-07-28T09:05:27.606Z,2.87
2018-07-28T09:07:56.470Z,3.57
2018-07-28T09:10:25.691Z,3.80
2018-07-28T09:12:54.114Z,3.80
2018-07-28T09:15:22.575Z,3.30
2018-07-28T09:17:51.009Z,3.47
2018-07-28T09:20:20.069Z,3.73
2018-07-28T09:22:49.099Z,3.43
2018-07-28T09:25:17.467Z,4.17
2018-07-28T09:27:46.227Z,3.40
2018-07-28T09:30:14.639Z,4.07
2018-07-28T09:32:43.063Z,3.47
2018-07-28T09:35:11.487Z,3.17
2018-07-28T09:37:39.905Z,3.63
2018-07-28T09:40:08.675Z,4.47
2018-07-28T09:42:37.082Z,3.33
2018-07-28T09:45:07.373Z,2.90
2018-07-28T09:47:36.126Z,2.60
2018-07-28T09:50:05.117Z,3.40
2018-07-28T09:52:33.486Z,3.80
2018-07-28T09:55:01.883Z,2.73
2018-07-28T09:57:30.574Z,3.57
2018-07-28T09:59:58.947Z,2.57
2018-07-28T10:02:27.624Z,2.27
2018-07-28T10:04:55.987Z,3.27
2018-07-28T10:07:24.528Z,3.87
2018-07-28T10:09:53.243Z,2.47
2018-07-28T10:12:22.171Z,3.33
2018-07-28T10:14:53.451Z,2.73
2018-07-28T10:17:22.454Z,3.00
2018-07-28T10:19:52.537Z,4.17
2018-07-28T10:22:21.955Z,3.03
2018-07-28T10:24:51.070Z,3.37
2018-07-28T10:27:20.402Z,3.30
2018-07-28T10:29:49.999Z,2.97
2018-07-28T10:32:18.622Z,2.83
2018-07-28T10:34:47.101Z,2.70
2018-07-28T10:37:15.483Z,3.60
2018-07-28T10:39:44.083Z,4.17
2018-07-28T10:42:12.692Z,3.47
2018-07-28T10:44:41.375Z,3.70
2018-07-28T10:47:11.097Z,4.60
2018-07-28T10:49:40.537Z,3.87
2018-07-28T10:52:08.634Z,3.00
2018-07-28T10:54:37.979Z,3.60
2018-07-28T10:57:07.886Z,4.10
2018-07-28T10:59:36.369Z,3.70
2018-07-28T11:02:05.895Z,3.50
2018-07-28T11:04:34.916Z,3.10
2018-07-28T11:07:03.310Z,2.70
2018-07-28T11:09:32.018Z,3.60
2018-07-28T11:12:01.571Z,3.70
2018-07-28T11:14:31.495Z,3.50
2018-07-28T11:17:00.628Z,3.70
2018-07-28T11:19:30.193Z,3.67
2018-07-28T11:21:58.909Z,3.17
2018-07-28T11:24:27.279Z,3.73
2018-07-28T11:26:56.804Z,3.57
2018-07-28T11:29:25.191Z,3.97
2018-07-28T11:32:04.866Z,3.17
2018-07-28T11:34:44.607Z,3.40
2018-07-28T11:37:26.962Z,3.30
2018-07-28T11:40:06.772Z,3.83
2018-07-28T11:42:46.566Z,3.47
2018-07-28T11:45:16.811Z,3.57
2018-07-28T11:47:47.571Z,3.50
2018-07-28T11:50:16.459Z,3.20
2018-07-28T11:52:47.564Z,2.83
2018-07-28T11:55:16.303Z,3.30
2018-07-28T11:57:46.663Z,3.20
2018-07-28T12:00:16.143Z,2.73
2018-07-28T12:02:46.563Z,2.70
2018-07-28T12:05:14.741Z,2.87
2018-07-28T12:07:44.358Z,2.23
2018-07-28T12:10:14.007Z,2.70
2018-07-28T12:12:43.953Z,2.60
2018-07-28T12:15:12.707Z,2.73
2018-07-28T12:17:42.383Z,2.47
2018-07-28T12:20:12.791Z,3.07
2018-07-28T12:22:43.196Z,2.10
2018-07-28T12:25:11.765Z,2.10
2018-07-28T12:27:41.378Z,2.73
2018-07-28T12:30:11.476Z,2.10
2018-07-28T12:32:41.942Z,2.90
2018-07-28T12:35:10.597Z,2.20
2018-07-28T12:37:40.993Z,2.50
2018-07-28T12:40:10.572Z,2.30
2018-07-28T12:42:40.755Z,2.80
2018-07-28T12:45:10.357Z,2.80
2018-07-28T12:47:40.807Z,2.23
2018-07-28T12:50:15.615Z,2.30
2018-07-28T12:52:46.065Z,2.40
2018-07-28T12:55:15.347Z,2.40
2018-07-28T12:57:43.932Z,3.23
2018-07-28T13:00:13.652Z,2.53
2018-07-28T13:02:42.623Z,2.93
2018-07-28T13:05:12.448Z,2.50
2018-07-28T13:07:43.107Z,2.73
2018-07-28T13:10:12.645Z,2.43
2018-07-28T13:12:42.170Z,2.73
2018-07-28T13:15:12.461Z,3.07
2018-07-28T13:17:41.967Z,3.27
2018-07-28T13:20:11.452Z,2.40
2018-07-28T13:22:40.355Z,3.10
2018-07-28T13:25:09.316Z,3.30
2018-07-28T13:27:38.567Z,2.93
2018-07-28T13:30:08.052Z,1.80
2018-07-28T13:32:36.329Z,1.20
2018-07-28T13:35:04.714Z,1.30
2018-07-28T13:37:33.075Z,1.53
2018-07-28T13:40:01.443Z,1.47
2018-07-28T13:42:29.802Z,1.60
2018-07-28T13:44:58.470Z,1.40
2018-07-28T13:47:27.679Z,1.60
2018-07-28T13:49:56.032Z,1.90
2018-07-28T13:52:24.415Z,2.80
2018-07-28T13:54:54.568Z,1.57
2018-07-28T13:57:23.366Z,2.03
2018-07-28T13:59:51.763Z,2.10
2018-07-28T14:02:20.611Z,2.47
2018-07-28T14:04:49.405Z,2.80
2018-07-28T14:07:17.942Z,2.33
2018-07-28T14:09:46.579Z,2.53
2018-07-28T14:12:15.046Z,2.00
2018-07-28T14:14:43.492Z,2.70
2018-07-28T14:17:11.868Z,2.87
2018-07-28T14:19:40.515Z,3.17
2018-07-28T14:22:09.666Z,2.00
2018-07-28T14:24:38.086Z,2.57
2018-07-28T14:27:06.846Z,2.00
2018-07-28T14:29:35.230Z,2.20
2018-07-28T14:32:03.822Z,1.93
2018-07-28T14:34:32.211Z,2.20
2018-07-28T14:37:01.340Z,2.03
2018-07-28T14:39:29.695Z,2.63
2018-07-28T14:41:58.094Z,2.60
2018-07-28T14:44:26.502Z,2.93
2018-07-28T14:46:55.703Z,2.70
2018-07-28T14:49:24.403Z,2.20
2018-07-28T14:51:52.923Z,1.87
2018-07-28T14:54:21.862Z,2.50
2018-07-28T14:56:50.503Z,2.47
2018-07-28T14:59:18.589Z,2.37
2018-07-28T15:01:50.742Z,2.20
2018-07-28T15:04:21.668Z,2.67
2018-07-28T15:06:55.343Z,1.87
2018-07-28T15:09:28.034Z,3.17
2018-07-28T15:11:59.884Z,2.20
2018-07-28T15:14:31.002Z,2.87
2018-07-28T15:16:59.367Z,2.70
2018-07-28T15:19:28.335Z,1.90
2018-07-28T15:21:57.058Z,2.57
2018-07-28T15:24:25.751Z,1.57
2018-07-28T15:26:54.124Z,2.33
2018-07-28T15:29:23.059Z,2.43
2018-07-28T15:31:51.699Z,2.60
2018-07-28T15:34:20.384Z,1.90
2018-07-28T15:36:49.699Z,2.57
2018-07-28T15:39:18.371Z,2.67
2018-07-28T15:41:46.826Z,3.03
2018-07-28T15:44:15.440Z,3.47
2018-07-28T15:46:45.587Z,3.00
2018-07-28T15:49:14.241Z,3.73
2018-07-28T15:51:43.136Z,3.17
2018-07-28T15:54:11.775Z,3.00
2018-07-28T15:56:40.148Z,2.70
2018-07-28T15:59:09.075Z,2.90
2018-07-28T16:01:37.463Z,2.73
2018-07-28T16:04:05.908Z,3.13
2018-07-28T16:06:34.528Z,3.00
2018-07-28T16:09:02.996Z,2.37
2018-07-28T16:11:32.199Z,4.50
2018-07-28T16:14:00.539Z,3.00
2018-07-28T16:16:28.657Z,3.20
2018-07-28T16:18:57.281Z,3.27
2018-07-28T16:21:25.979Z,3.33
2018-07-28T16:23:55.319Z,3.23
2018-07-28T16:26:23.966Z,3.13
2018-07-28T16:28:52.655Z,3.30
2018-07-28T16:31:21.031Z,3.13
2018-07-28T16:33:49.650Z,3.33
2018-07-28T16:36:18.395Z,3.57
2018-07-28T16:38:46.782Z,3.10
2018-07-28T16:41:15.497Z,3.80
2018-07-28T16:43:43.808Z,3.17
2018-07-28T16:46:12.411Z,3.87
2018-07-28T16:48:41.102Z,3.23
2018-07-28T16:51:09.591Z,4.23
2018-07-28T16:53:37.971Z,3.03
2018-07-28T16:56:06.378Z,4.40
2018-07-28T16:58:34.759Z,3.90
2018-07-28T17:01:03.152Z,3.73
2018-07-28T17:03:31.507Z,4.70
2018-07-28T17:06:00.544Z,3.73
2018-07-28T17:08:28.909Z,4.53
2018-07-28T17:10:57.574Z,3.83
2018-07-28T17:13:25.970Z,4.20
2018-07-28T17:15:54.639Z,4.00
2018-07-28T17:18:23.567Z,3.13
2018-07-28T17:20:52.235Z,4.60
2018-07-28T17:23:21.003Z,4.23
2018-07-28T17:25:49.403Z,4.40
2018-07-28T17:28:18.067Z,5.07
2018-07-28T17:30:46.832Z,4.07
2018-07-28T17:33:15.154Z,3.93
2018-07-28T17:35:43.522Z,4.33
2018-07-28T17:38:11.879Z,5.40
2018-07-28T17:40:40.298Z,4.57
2018-07-28T17:43:08.939Z,4.77
2018-07-28T17:45:37.369Z,4.60
2018-07-28T17:48:06.366Z,4.53
2018-07-28T17:50:35.003Z,5.10
2018-07-28T17:53:03.355Z,3.97
2018-07-28T17:55:32.273Z,4.00
2018-07-28T17:58:00.755Z,4.90
2018-07-28T18:00:29.199Z,4.50
2018-07-28T18:02:58.384Z,5.37
2018-07-28T18:05:26.726Z,4.40
2018-07-28T18:07:55.395Z,4.80
2018-07-28T18:10:24.127Z,4.73
2018-07-28T18:12:52.763Z,4.63
2018-07-28T18:15:21.449Z,4.30
2018-07-28T18:17:50.348Z,3.80
2018-07-28T18:20:18.887Z,4.83
2018-07-28T18:22:47.246Z,5.27
2018-07-28T18:25:16.020Z,5.83
2018-07-28T18:27:44.399Z,4.80
2018-07-28T18:30:13.373Z,4.27
2018-07-28T18:32:41.775Z,5.20
2018-07-28T18:35:10.139Z,4.40
2018-07-28T18:37:38.511Z,5.70
2018-07-28T18:40:07.175Z,4.93
2018-07-28T18:42:36.071Z,4.50
2018-07-28T18:45:04.569Z,5.10
2018-07-28T18:47:32.970Z,4.60
2018-07-28T18:50:01.352Z,5.57
2018-07-28T18:52:29.782Z,4.70
2018-07-28T18:54:58.170Z,5.20
2018-07-28T18:57:26.566Z,4.83
2018-07-28T18:59:55.250Z,5.20
2018-07-28T19:02:23.615Z,4.67
2018-07-28T19:04:52.056Z,5.80
2018-07-28T19:07:20.407Z,4.50
2018-07-28T19:09:51.855Z,4.63
2018-07-28T19:12:25.924Z,4.77
2018-07-28T19:14:55.567Z,5.30
2018-07-28T19:17:28.411Z,5.20
2018-07-28T19:19:57.059Z,5.27
2018-07-28T19:22:30.801Z,4.20
2018-07-28T19:24:59.489Z,4.33
2018-07-28T19:27:27.863Z,5.50
2018-07-28T19:29:56.214Z,4.43
2018-07-28T19:32:24.919Z,5.10
2018-07-28T19:34:53.311Z,4.97
2018-07-28T19:37:23.562Z,4.40
2018-07-28T19:39:52.183Z,4.70
2018-07-28T19:42:25.974Z,5.37
2018-07-28T19:44:54.663Z,4.10
2018-07-28T19:47:23.072Z,3.87
2018-07-28T19:49:51.972Z,4.60
2018-07-28T19:52:20.330Z,5.10
2018-07-28T19:54:48.738Z,4.73
2018-07-28T19:57:17.746Z,4.63
2018-07-28T19:59:46.710Z,4.83
2018-07-28T20:02:15.632Z,5.07
2018-07-28T20:04:44.211Z,3.60
2018-07-28T20:07:12.672Z,5.57
2018-07-28T20:09:41.019Z,4.50
2018-07-28T20:12:09.423Z,4.77
2018-07-28T20:14:37.806Z,6.03
2018-07-28T20:17:06.706Z,5.10
2018-07-28T20:19:35.665Z,4.10
2018-07-28T20:22:04.047Z,5.00
2018-07-28T20:24:32.401Z,6.10
2018-07-28T20:27:00.542Z,3.47
2018-07-28T20:29:28.899Z,5.43
2018-07-28T20:31:57.378Z,4.50
2018-07-28T20:34:25.981Z,5.63
2018-07-28T20:36:55.351Z,4.20
2018-07-28T20:39:23.753Z,4.87
2018-07-28T20:41:52.337Z,5.37
2018-07-28T20:44:20.951Z,5.53
2018-07-28T20:46:49.626Z,5.53
2018-07-28T20:49:18.011Z,6.17
2018-07-28T20:51:46.691Z,4.20
2018-07-28T20:54:15.035Z,4.37
2018-07-28T20:56:43.414Z,6.17
2018-07-28T20:59:11.871Z,6.60
2018-07-28T21:01:40.514Z,5.00
2018-07-28T21:04:09.215Z,5.60
2018-07-28T21:06:37.601Z,5.23
2018-07-28T21:09:07.474Z,5.97
2018-07-28T21:11:36.163Z,5.10
2018-07-28T21:14:04.578Z,6.03
2018-07-28T21:16:33.005Z,4.80
2018-07-28T21:19:01.599Z,5.60
2018-07-28T21:21:30.279Z,6.03
2018-07-28T21:23:58.983Z,5.63
2018-07-28T21:26:27.663Z,5.17
2018-07-28T21:28:56.155Z,5.30
2018-07-28T21:31:24.614Z,4.87
2018-07-28T21:33:53.306Z,5.80
2018-07-28T21:36:21.679Z,5.30
2018-07-28T21:38:50.109Z,5.83
2018-07-28T21:41:18.522Z,5.73
2018-07-28T21:43:47.503Z,5.00
2018-07-28T21:46:15.874Z,5.80
2018-07-28T21:48:44.246Z,5.10
2018-07-28T21:51:12.991Z,5.40
2018-07-28T21:53:41.070Z,5.97
2018-07-28T21:56:09.459Z,5.60
2018-07-28T21:58:38.455Z,4.83
2018-07-28T22:01:14.591Z,4.60
2018-07-28T22:03:42.967Z,4.10
2018-07-28T22:06:11.366Z,5.63
2018-07-28T22:08:40.331Z,5.77
2018-07-28T22:11:09.287Z,5.37
2018-07-28T22:13:38.180Z,5.83
2018-07-28T22:16:06.640Z,5.40
2018-07-28T22:18:35.071Z,5.90
2018-07-28T22:21:03.479Z,5.67
2018-07-28T22:23:32.186Z,5.50
2018-07-28T22:26:01.632Z,5.83
2018-07-28T22:28:33.363Z,5.53
2018-07-28T22:31:01.723Z,6.27
2018-07-28T22:33:30.115Z,5.63
2018-07-28T22:35:58.511Z,5.50
2018-07-28T22:38:26.959Z,7.27
2018-07-28T22:40:55.319Z,6.47
2018-07-28T22:43:23.810Z,5.10
2018-07-28T22:45:52.167Z,5.10
2018-07-28T22:48:20.584Z,5.90
2018-07-28T22:50:55.727Z,5.50
2018-07-28T22:53:24.255Z,6.97
2018-07-28T22:55:52.899Z,7.73
2018-07-28T22:58:21.459Z,9.70
2018-07-28T23:00:50.399Z,12.90
2018-07-28T23:03:18.776Z,10.57
2018-07-28T23:05:47.479Z,8.83
2018-07-28T23:08:16.455Z,5.70
2018-07-28T23:10:45.108Z,6.10
2018-07-28T23:13:13.787Z,6.00
2018-07-28T23:15:42.189Z,5.10
2018-07-28T23:18:11.443Z,5.90
2018-07-28T23:20:39.807Z,5.07
2018-07-28T23:23:08.191Z,5.87
2018-07-28T23:25:36.634Z,6.07
2018-07-28T23:28:05.312Z,4.70
2018-07-28T23:30:33.666Z,5.27
2018-07-28T23:33:02.543Z,5.53
2018-07-28T23:35:30.938Z,4.70
2018-07-28T23:37:59.956Z,8.10
2018-07-28T23:40:28.364Z,5.03
2018-07-28T23:42:56.767Z,5.70
2018-07-28T23:45:25.155Z,5.20
2018-07-28T23:47:53.851Z,5.50
2018-07-28T23:50:22.511Z,5.70
2018-07-28T23:52:51.668Z,5.63
2018-07-28T23:55:20.375Z,5.00
2018-07-28T23:57:48.787Z,5.33
